TimeCST,TemperatureF,Dew PointF,Humidity,Sea Level PressureIn,VisibilityMPH,Wind Direction,Wind SpeedMPH,Gust SpeedMPH,PrecipitationIn,Events,Conditions,WindDirDegrees,DateUTC
12:15 AM,42.8,33.8,70,29.99,10.0,West,6.9,-,N/A,,Clear,270,2012-12-04 06:15:00
12:35 AM,41.0,33.8,76,29.99,10.0,West,8.1,-,N/A,,Clear,270,2012-12-04 06:35:00
12:55 AM,41.0,33.8,76,29.99,10.0,West,6.9,-,N/A,,Clear,280,2012-12-04 06:55:00
1:15 AM,39.2,33.8,81,29.99,10.0,Calm,Calm,-,N/A,,Clear,0,2012-12-04 07:15:00
1:35 AM,39.2,32.0,75,29.99,10.0,West,4.6,-,N/A,,Clear,280,2012-12-04 07:35:00
1:55 AM,39.2,32.0,75,29.99,10.0,West,5.8,-,N/A,,Clear,270,2012-12-04 07:55:00
2:15 AM,37.4,32.0,81,29.99,10.0,West,6.9,-,N/A,,Clear,280,2012-12-04 08:15:00
2:55 AM,37.4,32.0,81,30.01,10.0,WNW,5.8,-,N/A,,Clear,290,2012-12-04 08:55:00
3:15 AM,39.2,32.0,75,30.01,10.0,NW,6.9,-,N/A,,Clear,320,2012-12-04 09:15:00
3:35 AM,41.0,30.2,65,30.00,10.0,NW,9.2,-,N/A,,Clear,320,2012-12-04 09:35:00
3:55 AM,42.8,30.2,61,30.01,10.0,NW,9.2,-,N/A,,Clear,320,2012-12-04 09:55:00
4:15 AM,41.0,30.2,65,30.02,10.0,NW,6.9,-,N/A,,Clear,310,2012-12-04 10:15:00
4:35 AM,41.0,28.4,61,30.03,10.0,NNW,5.8,-,N/A,,Clear,330,2012-12-04 10:35:00
4:55 AM,39.2,28.4,65,30.04,10.0,NW,5.8,-,N/A,,Clear,320,2012-12-04 10:55:00
5:15 AM,37.4,28.4,70,30.04,10.0,West,3.5,-,N/A,,Clear,280,2012-12-04 11:15:00
5:35 AM,39.2,28.4,65,30.05,10.0,Calm,Calm,-,N/A,,Clear,0,2012-12-04 11:35:00
6:15 AM,35.6,28.4,75,30.07,10.0,Calm,Calm,-,N/A,,Clear,0,2012-12-04 12:15:00
6:35 AM,33.8,28.4,81,30.09,10.0,Calm,Calm,-,N/A,,Clear,0,2012-12-04 12:35:00
6:55 AM,33.8,28.4,81,30.09,10.0,Calm,Calm,-,N/A,,Clear,0,2012-12-04 12:55:00
7:15 AM,33.8,28.4,81,30.10,10.0,Calm,Calm,-,N/A,,Clear,0,2012-12-04 13:15:00
7:35 AM,33.8,28.4,81,30.11,10.0,Calm,Calm,-,N/A,,Clear,0,2012-12-04 13:35:00
7:55 AM,33.8,28.4,81,30.12,10.0,Calm,Calm,-,N/A,,Clear,0,2012-12-04 13:55:00
8:15 AM,33.8,28.4,81,30.12,10.0,Calm,Calm,-,N/A,,Clear,0,2012-12-04 14:15:00
8:35 AM,37.4,30.2,75,30.13,10.0,Calm,Calm,-,N/A,,Clear,0,2012-12-04 14:35:00
8:55 AM,39.2,32.0,75,30.13,10.0,Calm,Calm,-,N/A,,Clear,0,2012-12-04 14:55:00
9:15 AM,41.0,30.2,65,30.13,10.0,Calm,Calm,-,N/A,,Clear,0,2012-12-04 15:15:00
9:35 AM,41.0,28.4,61,30.14,10.0,Calm,Calm,-,N/A,,Clear,0,2012-12-04 15:35:00
9:55 AM,42.8,28.4,57,30.14,10.0,Calm,Calm,-,N/A,,Clear,0,2012-12-04 15:55:00
10:15 AM,44.6,28.4,53,30.14,10.0,West,4.6,-,N/A,,Clear,270,2012-12-04 16:15:00
10:35 AM,46.4,28.4,50,30.14,10.0,West,5.8,-,N/A,,Clear,270,2012-12-04 16:35:00
10:55 AM,48.2,28.4,46,30.14,10.0,West,5.8,-,N/A,,Clear,270,2012-12-04 16:55:00
11:15 AM,48.2,30.2,50,30.13,10.0,WNW,4.6,-,N/A,,Clear,290,2012-12-04 17:15:00
11:35 AM,50.0,28.4,43,30.13,10.0,WNW,6.9,-,N/A,,Clear,300,2012-12-04 17:35:00
11:55 AM,51.8,30.2,44,30.13,10.0,WNW,10.4,-,N/A,,Clear,300,2012-12-04 17:55:00
12:15 PM,51.8,28.4,41,30.12,10.0,West,15.0,19.6,N/A,,Clear,280,2012-12-04 18:15:00
12:35 PM,51.8,28.4,41,30.12,10.0,West,15.0,19.6,N/A,,Clear,280,2012-12-04 18:35:00
12:55 PM,51.8,28.4,41,30.12,10.0,WNW,15.0,19.6,N/A,,Clear,290,2012-12-04 18:55:00
1:15 PM,51.8,28.4,41,30.12,10.0,WNW,18.4,-,N/A,,Clear,290,2012-12-04 19:15:00
1:35 PM,51.8,30.2,44,30.12,10.0,WNW,16.1,-,N/A,,Clear,290,2012-12-04 19:35:00
1:55 PM,51.8,30.2,44,30.12,10.0,West,15.0,19.6,N/A,,Clear,270,2012-12-04 19:55:00
2:15 PM,51.8,28.4,41,30.13,10.0,West,16.1,-,N/A,,Clear,280,2012-12-04 20:15:00
2:35 PM,51.8,28.4,41,30.13,10.0,WNW,18.4,24.2,N/A,,Clear,290,2012-12-04 20:35:00
2:55 PM,50.0,28.4,43,30.14,10.0,West,13.8,-,N/A,,Clear,280,2012-12-04 20:55:00
3:15 PM,50.0,26.6,40,30.15,10.0,West,17.3,26.5,N/A,,Clear,280,2012-12-04 21:15:00
3:35 PM,48.2,26.6,43,30.16,10.0,West,16.1,19.6,N/A,,Clear,280,2012-12-04 21:35:00
3:55 PM,48.2,26.6,43,30.17,10.0,West,19.6,-,N/A,,Clear,280,2012-12-04 21:55:00
4:15 PM,46.4,24.8,43,30.18,10.0,West,13.8,-,N/A,,Clear,280,2012-12-04 22:15:00
4:55 PM,42.8,24.8,49,30.19,10.0,WNW,8.1,-,N/A,,Clear,300,2012-12-04 22:55:00
5:15 PM,42.8,24.8,49,30.21,10.0,WNW,10.4,-,N/A,,Clear,290,2012-12-04 23:15:00
5:35 PM,39.2,24.8,56,30.21,10.0,NW,6.9,-,N/A,,Clear,310,2012-12-04 23:35:00
5:55 PM,41.0,24.8,53,30.22,10.0,NW,6.9,-,N/A,,Clear,310,2012-12-04 23:55:00
6:15 PM,39.2,23.0,52,30.23,10.0,NW,8.1,-,N/A,,Clear,310,2012-12-05 00:15:00
6:35 PM,39.2,23.0,52,30.24,10.0,WNW,10.4,-,N/A,,Clear,300,2012-12-05 00:35:00
6:55 PM,37.4,21.2,52,30.24,10.0,WNW,11.5,-,N/A,,Clear,300,2012-12-05 00:55:00
7:15 PM,37.4,21.2,52,30.25,10.0,WNW,10.4,-,N/A,,Clear,300,2012-12-05 01:15:00
7:35 PM,35.6,21.2,56,30.25,10.0,WNW,9.2,-,N/A,,Clear,300,2012-12-05 01:35:00
7:55 PM,35.6,21.2,56,30.26,10.0,NNW,5.8,-,N/A,,Clear,340,2012-12-05 01:55:00
8:15 PM,33.8,19.4,56,30.27,10.0,NW,10.4,16.1,N/A,,Clear,320,2012-12-05 02:15:00
8:35 PM,33.8,19.4,56,30.27,10.0,NNW,10.4,-,N/A,,Clear,330,2012-12-05 02:35:00
8:55 PM,33.8,19.4,56,30.29,10.0,NW,8.1,-,N/A,,Clear,320,2012-12-05 02:55:00
9:15 PM,33.8,19.4,56,30.30,10.0,NNW,6.9,-,N/A,,Clear,330,2012-12-05 03:15:00
9:35 PM,32.0,19.4,60,30.31,10.0,Calm,Calm,-,N/A,,Clear,0,2012-12-05 03:35:00
9:55 PM,30.2,19.4,64,30.32,10.0,Calm,Calm,-,N/A,,Clear,0,2012-12-05 03:55:00
10:15 PM,30.2,19.4,64,30.33,10.0,NW,3.5,-,N/A,,Clear,310,2012-12-05 04:15:00
10:35 PM,30.2,19.4,64,30.34,10.0,Calm,Calm,-,N/A,,Clear,0,2012-12-05 04:35:00
10:55 PM,30.2,19.4,64,30.34,10.0,NNW,5.8,-,N/A,,Clear,340,2012-12-05 04:55:00
11:15 PM,30.2,17.6,60,30.36,10.0,NNW,4.6,-,N/A,,Clear,340,2012-12-05 05:15:00
11:35 PM,30.2,17.6,60,30.35,10.0,Calm,Calm,-,N/A,,Clear,0,2012-12-05 05:35:00
11:55 PM,26.6,17.6,69,30.37,10.0,Calm,Calm,-,N/A,,Clear,0,2012-12-05 05:55:00